Time;durP1;ratioP1;P1;durP2;ratioP2;P2;SDS_P1;SDS_P2;PMS_P1;PMS_P2;Temp;Humidity;BMP_temperature;BMP_pressure;BME280_temperature;BME280_humidity;BME280_pressure;Samples;Min_cycle;Max_cycle;Signal;HPM_P1;HPM_P2
2021/03/01 00:02:13;;;;;;;37.22;14.85;;;;;;;3.54;100.00;103443.91;6222995;28;20434;-71
2021/03/01 00:05:14;;;;;;;39.47;15.57;;;;;;;3.50;100.00;103448.22;6223193;28;20181;-71
2021/03/01 00:08:15;;;;;;;49.58;17.67;;;;;;;3.50;100.00;103452.53;6223269;28;20053;-71
2021/03/01 00:11:16;;;;;;;48.67;16.17;;;;;;;3.51;100.00;103454.28;6222813;28;20457;-71
2021/03/01 00:14:17;;;;;;;51.67;16.08;;;;;;;3.52;100.00;103456.03;6223348;28;20054;-71
2021/03/01 00:17:18;;;;;;;41.45;14.45;;;;;;;3.51;100.00;103449.94;6222245;28;20520;-71
2021/03/01 00:20:19;;;;;;;51.70;16.27;;;;;;;3.52;100.00;103449.09;6222773;28;20057;-71
2021/03/01 00:23:20;;;;;;;42.60;14.43;;;;;;;3.55;100.00;103453.50;6222716;28;20076;-71
2021/03/01 00:26:22;;;;;;;51.63;16.10;;;;;;;3.48;100.00;103459.41;6223805;28;20408;-71
2021/03/01 00:29:22;;;;;;;43.78;15.02;;;;;;;3.49;100.00;103459.44;6222807;28;20076;-71
2021/03/01 00:32:24;;;;;;;46.50;16.15;;;;;;;3.50;100.00;103463.81;6223535;28;20053;-71
2021/03/01 00:35:25;;;;;;;43.78;16.33;;;;;;;3.53;100.00;103461.25;6222532;28;20065;-71
2021/03/01 00:38:25;;;;;;;40.03;15.55;;;;;;;3.57;100.00;103462.19;6222350;28;20078;-72
2021/03/01 00:41:27;;;;;;;35.05;14.70;;;;;;;3.53;100.00;103463.84;6222576;28;20054;-71
2021/03/01 00:44:28;;;;;;;38.42;14.68;;;;;;;3.53;100.00;103456.03;6222325;28;20096;-72
2021/03/01 00:47:29;;;;;;;35.20;13.80;;;;;;;3.71;100.00;103462.44;6222658;28;20129;-71
2021/03/01 00:50:30;;;;;;;32.63;14.85;;;;;;;3.55;100.00;103456.09;6222319;28;20046;-71
2021/03/01 00:53:31;;;;;;;32.25;13.48;;;;;;;3.51;100.00;103462.09;6222131;28;20608;-71
2021/03/01 00:56:32;;;;;;;35.47;13.85;;;;;;;3.50;100.00;103456.00;6223425;28;20049;-71
2021/03/01 00:59:33;;;;;;;34.67;14.35;;;;;;;3.55;100.00;103453.50;6221970;28;20129;-72
2021/03/01 01:02:34;;;;;;;33.90;14.75;;;;;;;3.49;100.00;103462.03;6222090;28;20050;-72
2021/03/01 01:05:35;;;;;;;36.00;14.57;;;;;;;3.52;100.00;103456.03;6222397;28;20073;-71
2021/03/01 01:08:36;;;;;;;30.80;13.93;;;;;;;3.66;100.00;103453.69;6222275;28;20074;-71
2021/03/01 01:11:38;;;;;;;35.45;15.05;;;;;;;3.76;100.00;103442.59;6221689;28;20046;-71
2021/03/01 01:14:38;;;;;;;33.92;11.65;;;;;;;3.72;100.00;103438.19;6222281;28;20572;-71
2021/03/01 01:17:39;;;;;;;32.38;11.07;;;;;;;3.71;100.00;103433.84;6221872;28;20053;-71
2021/03/01 01:20:40;;;;;;;30.83;12.98;;;;;;;3.64;100.00;103434.59;6221775;28;20046;-71
2021/03/01 01:23:41;;;;;;;29.55;12.13;;;;;;;3.78;100.00;103425.31;6221869;28;20077;-72
2021/03/01 01:26:43;;;;;;;33.63;11.85;;;;;;;3.75;100.00;103422.66;6222952;28;20068;-71
2021/03/01 01:29:44;;;;;;;31.90;12.02;;;;;;;3.72;100.00;103420.84;6225292;28;20414;-72
2021/03/01 01:32:45;;;;;;;31.60;12.15;;;;;;;3.66;100.00;103418.16;6226562;28;20049;-71
2021/03/01 01:35:45;;;;;;;33.15;11.73;;;;;;;3.68;100.00;103418.19;6226870;28;20073;-71
2021/03/01 01:38:46;;;;;;;32.97;11.23;;;;;;;3.59;100.00;103410.22;6226438;28;20046;-71
2021/03/01 01:41:48;;;;;;;36.20;12.50;;;;;;;3.58;100.00;103414.53;6226775;28;20112;-71
2021/03/01 01:44:49;;;;;;;29.55;12.88;;;;;;;3.61;100.00;103408.53;6226507;28;20147;-71
2021/03/01 01:47:52;;;;;;;41.72;13.15;;;;;;;3.65;100.00;103402.53;6226770;28;20081;-71
2021/03/01 01:50:52;;;;;;;29.50;11.85;;;;;;;3.69;100.00;103399.16;6226215;28;20065;-72
2021/03/01 01:53:54;;;;;;;29.70;11.60;;;;;;;3.86;100.00;103399.41;6226302;28;20057;-72
2021/03/01 01:56:56;;;;;;;35.65;11.68;;;;;;;3.71;100.00;103393.09;6227386;28;20054;-71
2021/03/01 01:59:57;;;;;;;49.45;14.35;;;;;;;3.66;100.00;103392.16;6225907;28;20054;-71
2021/03/01 02:03:02;;;;;;;37.70;11.88;;;;;;;3.83;100.00;103392.47;6225795;28;20442;-72
2021/03/01 02:06:08;;;;;;;35.17;11.68;;;;;;;3.75;100.00;103397.53;6226332;28;20056;-72
2021/03/01 02:09:25;;;;;;;41.15;13.50;;;;;;;3.65;100.00;103385.22;6226170;28;20152;-72
2021/03/01 02:12:40;;;;;;;40.63;13.50;;;;;;;3.78;100.00;103383.72;6225593;28;20399;-71
2021/03/01 02:15:46;;;;;;;39.75;12.52;;;;;;;3.68;100.00;103386.97;6226020;28;20061;-71
2021/03/01 02:18:47;;;;;;;34.47;12.75;;;;;;;3.65;100.00;103397.34;6225662;28;20053;-71
2021/03/01 02:21:48;;;;;;;38.30;13.05;;;;;;;3.68;100.00;103386.97;6225567;28;20526;-71
2021/03/01 02:24:52;;;;;;;35.92;12.35;;;;;;;3.78;100.00;103383.72;6225628;28;20046;-71
2021/03/01 02:27:57;;;;;;;40.50;11.75;;;;;;;3.91;100.00;103383.06;6226651;28;20064;-71
2021/03/01 02:31:00;;;;;;;36.22;11.90;;;;;;;3.88;100.00;103380.41;6225159;28;20054;-71
2021/03/01 02:34:05;;;;;;;41.55;11.32;;;;;;;3.80;100.00;103382.00;6225409;28;20558;-71
2021/03/01 02:37:11;;;;;;;38.53;11.35;;;;;;;3.77;100.00;103385.44;6225426;28;20054;-71
2021/03/01 02:40:13;;;;;;;30.63;11.10;;;;;;;3.80;100.00;103374.19;6224467;28;20092;-71
2021/03/01 02:43:14;;;;;;;31.08;12.18;;;;;;;3.80;100.00;103376.78;6224894;28;20045;-71
2021/03/01 02:46:16;;;;;;;42.75;13.38;;;;;;;3.70;100.00;103383.56;6225365;28;20054;-71
2021/03/01 02:49:18;;;;;;;39.92;12.88;;;;;;;3.71;100.00;103387.03;6224970;28;20100;-71
2021/03/01 02:52:21;;;;;;;46.78;11.82;;;;;;;3.73;100.00;103383.63;6224730;28;20133;-71
2021/03/01 02:55:24;;;;;;;33.08;10.82;;;;;;;3.74;100.00;103390.56;6224860;28;20404;-70
2021/03/01 02:58:28;;;;;;;37.88;11.77;;;;;;;3.76;100.00;103388.00;6225611;28;20152;-71
2021/03/01 03:01:30;;;;;;;36.17;12.57;;;;;;;3.78;100.00;103387.19;6224684;28;20096;-71
2021/03/01 03:04:33;;;;;;;38.47;11.85;;;;;;;3.79;100.00;103383.72;6224628;28;20057;-71
2021/03/01 03:07:37;;;;;;;40.53;11.93;;;;;;;3.84;100.00;103388.13;6224631;28;20140;-71
2021/03/01 03:10:39;;;;;;;38.05;11.63;;;;;;;3.92;100.00;103390.03;6223971;28;20050;-71
2021/03/01 03:13:43;;;;;;;28.02;10.30;;;;;;;3.81;100.00;103384.66;6224469;28;20058;-71
2021/03/01 03:16:47;;;;;;;36.72;11.90;;;;;;;3.79;100.00;103381.13;6224323;28;20046;-71
2021/03/01 03:19:48;;;;;;;32.88;10.63;;;;;;;3.81;100.00;103376.84;6224208;28;20469;-70
2021/03/01 03:22:49;;;;;;;35.70;10.60;;;;;;;3.80;100.00;103376.78;6223921;28;20112;-71
2021/03/01 03:25:50;;;;;;;28.90;10.32;;;;;;;3.80;100.00;103384.59;6224162;28;20450;-70
2021/03/01 03:28:51;;;;;;;32.55;10.52;;;;;;;3.81;100.00;103381.13;6242385;28;20057;-71
2021/03/01 03:31:52;;;;;;;26.23;9.23;;;;;;;3.83;100.00;103374.25;6247041;28;20502;-71
2021/03/01 03:34:53;;;;;;;27.48;10.30;;;;;;;3.94;100.00;103377.91;6240328;28;20053;-72
2021/03/01 03:38:02;;;;;;;32.50;10.57;;;;;;;3.83;100.00;103379.47;6223785;28;20073;-71
2021/03/01 03:41:04;;;;;;;25.38;9.50;;;;;;;3.87;100.00;103383.00;6223720;28;20429;-71
2021/03/01 03:44:08;;;;;;;32.22;10.23;;;;;;;3.81;100.00;103378.53;6223624;28;20453;-72
2021/03/01 03:47:10;;;;;;;26.50;10.05;;;;;;;3.79;100.00;103381.13;6223689;28;20050;-71
2021/03/01 03:50:12;;;;;;;28.50;9.18;;;;;;;3.79;100.00;103388.06;6232577;28;20399;-70
2021/03/01 03:53:17;;;;;;;26.55;9.02;;;;;;;3.81;100.00;103381.13;6246766;28;20132;-71
2021/03/01 03:56:23;;;;;;;27.80;9.65;;;;;;;3.74;100.00;103379.31;6248089;28;20053;-71
2021/03/01 03:59:29;;;;;;;25.55;9.65;;;;;;;3.74;100.00;103385.38;6224494;28;20518;-71
2021/03/01 04:02:30;;;;;;;26.92;9.50;;;;;;;3.75;100.00;103388.84;6223382;28;20137;-71
2021/03/01 04:05:32;;;;;;;27.00;9.13;;;;;;;3.78;100.00;103391.50;6223211;28;20081;-71
2021/03/01 04:08:35;;;;;;;23.20;8.77;;;;;;;3.82;100.00;103382.91;6223324;28;20050;-71
2021/03/01 04:11:40;;;;;;;28.85;9.30;;;;;;;3.80;100.00;103387.19;6222861;28;20045;-71
2021/03/01 04:14:42;;;;;;;29.67;9.55;;;;;;;3.76;100.00;103394.06;6223245;28;20054;-70
2021/03/01 04:17:46;;;;;;;27.38;9.30;;;;;;;3.75;100.00;103394.91;6222955;28;20054;-71
2021/03/01 04:20:47;;;;;;;29.70;9.85;;;;;;;3.83;100.00;103394.19;6222811;28;20054;-71
2021/03/01 04:23:51;;;;;;;26.08;9.30;;;;;;;3.83;100.00;103402.88;6222859;28;20056;-71
2021/03/01 04:26:52;;;;;;;31.85;10.65;;;;;;;3.79;100.00;103388.06;6226953;28;20421;-71
2021/03/01 04:29:55;;;;;;;23.40;8.65;;;;;;;3.81;100.00;103395.06;6247135;28;20056;-71
2021/03/01 04:32:59;;;;;;;23.98;7.93;;;;;;;3.81;100.00;103396.75;6247136;28;20060;-71
2021/03/01 04:36:01;;;;;;;23.65;8.65;;;;;;;3.81;100.00;103396.75;6247254;28;20049;-71
2021/03/01 04:39:04;;;;;;;28.67;9.38;;;;;;;3.79;100.00;103394.13;6247101;28;20072;-71
2021/03/01 04:42:06;;;;;;;25.05;9.77;;;;;;;3.80;100.00;103390.66;6246857;28;20048;-71
2021/03/01 04:45:08;;;;;;;24.02;9.07;;;;;;;3.78;100.00;103389.78;6246849;28;20080;-71
2021/03/01 04:48:11;;;;;;;28.90;8.75;;;;;;;3.73;100.00;103394.03;6246698;28;20410;-71
2021/03/01 04:51:12;;;;;;;27.13;9.60;;;;;;;3.79;100.00;103393.25;6246623;28;20046;-71
2021/03/01 04:54:15;;;;;;;25.42;9.07;;;;;;;3.68;100.00;103385.28;6246887;28;20506;-71
2021/03/01 04:57:16;;;;;;;28.58;9.68;;;;;;;3.70;100.00;103380.97;6239522;28;20053;-71
2021/03/01 05:00:19;;;;;;;22.13;9.00;;;;;;;3.77;100.00;103389.72;6235965;23;20053;-70
2021/03/01 05:03:20;;;;;;;29.88;9.98;;;;;;;3.68;99.99;103392.16;6220873;28;20049;-70
2021/03/01 05:06:22;;;;;;;26.63;9.95;;;;;;;3.72;100.00;103400.06;6222148;28;20050;-70
2021/03/01 05:09:23;;;;;;;31.77;10.98;;;;;;;3.70;100.00;103390.50;6222031;28;20050;-70
2021/03/01 05:12:24;;;;;;;26.90;8.98;;;;;;;3.72;100.00;103396.59;6221970;28;20045;-70
2021/03/01 05:15:25;;;;;;;31.27;10.57;;;;;;;3.73;100.00;103395.75;6222018;28;20073;-70
2021/03/01 05:18:27;;;;;;;28.02;10.05;;;;;;;3.68;100.00;103392.16;6222084;28;20064;-70
2021/03/01 05:21:28;;;;;;;28.63;10.73;;;;;;;3.67;99.84;103387.81;6221663;28;20517;-70
2021/03/01 05:24:30;;;;;;;21.00;9.77;;;;;;;3.60;100.00;103392.06;6222225;28;20141;-70
2021/03/01 05:27:32;;;;;;;24.83;9.45;;;;;;;3.60;100.00;103388.59;6221584;28;20502;-70
2021/03/01 05:30:33;;;;;;;26.25;9.15;;;;;;;3.61;100.00;103390.31;6222080;28;20208;-70
2021/03/01 05:33:34;;;;;;;23.15;8.43;;;;;;;3.61;100.00;103387.72;6221514;28;20054;-70
2021/03/01 05:36:35;;;;;;;27.67;9.00;;;;;;;3.64;100.00;103393.88;6220174;28;20046;-70
2021/03/01 05:39:37;;;;;;;26.15;10.32;;;;;;;3.61;100.00;103395.53;6221240;28;20050;-70
2021/03/01 05:42:41;;;;;;;27.90;9.38;;;;;;;3.62;100.00;103390.34;6220645;28;20415;-70
2021/03/01 05:45:42;;;;;;;24.48;8.55;;;;;;;3.66;100.00;103399.09;6221320;28;20049;-70
2021/03/01 05:48:44;;;;;;;28.77;10.55;;;;;;;3.63;100.00;103402.50;6221319;28;20046;-70
2021/03/01 05:51:50;;;;;;;26.27;9.25;;;;;;;3.70;100.00;103401.78;6220526;28;20637;-70
2021/03/01 05:54:52;;;;;;;29.20;9.43;;;;;;;3.63;100.00;103399.88;6220999;28;20541;-70
2021/03/01 05:57:56;;;;;;;23.02;8.90;;;;;;;3.65;100.00;103398.22;6221051;28;20050;-70
2021/03/01 06:01:00;;;;;;;28.95;8.80;;;;;;;3.63;99.50;103405.09;6219784;28;20111;-70
2021/03/01 06:04:01;;;;;;;24.63;8.73;;;;;;;3.60;99.83;103401.59;6221088;28;20065;-70
2021/03/01 06:07:02;;;;;;;26.58;9.05;;;;;;;3.59;100.00;103402.41;6221025;28;20050;-70
2021/03/01 06:10:05;;;;;;;20.58;8.75;;;;;;;3.60;100.00;103405.06;6221077;28;20173;-70
2021/03/01 06:13:06;;;;;;;22.65;8.23;;;;;;;3.59;100.00;103403.31;6220503;28;20045;-70
2021/03/01 06:16:08;;;;;;;20.63;8.88;;;;;;;3.64;99.61;103408.59;6223482;28;20050;-70
2021/03/01 06:19:09;;;;;;;26.13;8.18;;;;;;;3.59;100.00;103405.00;6225636;28;20046;-70
2021/03/01 06:22:10;;;;;;;22.58;8.30;;;;;;;3.58;100.00;103398.06;6224542;28;20045;-70
2021/03/01 06:25:14;;;;;;;27.17;8.23;;;;;;;3.59;100.00;103402.41;6225406;28;20045;-70
2021/03/01 06:28:15;;;;;;;26.48;9.02;;;;;;;3.58;100.00;103398.06;6224691;28;20112;-70
2021/03/01 06:31:47;;;;;;;22.42;9.43;;;;;;;3.55;99.52;103394.56;6224810;28;20046;-70
2021/03/01 06:34:47;;;;;;;21.15;8.43;;;;;;;3.58;98.89;103398.94;6149448;29;20106;-70
2021/03/01 06:38:20;;;;;;;27.30;9.10;;;;;;;3.52;100.00;103394.50;6225193;28;20049;-70
2021/03/01 06:41:21;;;;;;;26.23;8.40;;;;;;;3.51;100.00;103403.16;6223640;28;20529;-70
2021/03/01 06:44:23;;;;;;;23.33;8.63;;;;;;;3.55;100.00;103407.56;6224694;28;20050;-70
2021/03/01 06:47:43;;;;;;;22.73;9.82;;;;;;;3.55;99.46;103404.97;6224646;28;20042;-70
2021/03/01 06:50:45;;;;;;;23.48;8.88;;;;;;;3.54;100.00;103405.81;6224131;28;20057;-70
2021/03/01 06:53:58;;;;;;;21.70;8.07;;;;;;;3.56;100.00;103401.53;6224014;28;20049;-70
2021/03/01 06:56:59;;;;;;;38.63;10.20;;;;;;;3.58;100.00;103403.25;6220623;28;20045;-70
2021/03/01 07:00:00;;;;;;;32.15;10.57;;;;;;;3.62;100.00;103402.47;6219582;28;20050;-70
2021/03/01 07:03:01;;;;;;;25.52;9.40;;;;;;;3.61;100.00;103401.59;6223819;28;20077;-70
2021/03/01 07:06:03;;;;;;;26.10;10.25;;;;;;;3.55;100.00;103407.56;6224392;28;20450;-70
2021/03/01 07:09:13;;;;;;;29.92;10.85;;;;;;;3.62;100.00;103410.28;6224620;28;20054;-70
2021/03/01 07:12:14;;;;;;;23.02;8.98;;;;;;;3.71;99.28;103411.31;6223968;28;20141;-70
2021/03/01 07:15:15;;;;;;;28.00;9.93;;;;;;;3.57;99.58;103418.00;6224477;28;20494;-70
2021/03/01 07:18:16;;;;;;;32.10;10.40;;;;;;;3.58;100.00;103411.94;6224322;28;20050;-70
2021/03/01 07:21:17;;;;;;;25.30;8.98;;;;;;;3.73;100.00;103422.63;6224064;28;20046;-71
2021/03/01 07:24:21;;;;;;;29.45;10.63;;;;;;;3.68;100.00;103424.28;6224260;28;20043;-71
2021/03/01 07:27:23;;;;;;;27.77;8.98;;;;;;;3.66;100.00;103428.56;6222798;28;20064;-71
2021/03/01 07:30:28;;;;;;;25.23;9.52;;;;;;;3.65;100.00;103431.16;6222638;28;20046;-71
2021/03/01 07:33:28;;;;;;;25.95;9.48;;;;;;;3.68;100.00;103429.47;6223979;28;20046;-71
2021/03/01 07:36:31;;;;;;;30.30;9.82;;;;;;;3.72;100.00;103430.38;6223944;28;20050;-71
2021/03/01 07:39:33;;;;;;;32.45;9.15;;;;;;;3.78;100.00;103426.19;6223453;28;20129;-71
2021/03/01 07:42:36;;;;;;;24.88;9.15;;;;;;;3.69;100.00;103423.44;6223706;28;20096;-74
2021/03/01 07:45:38;;;;;;;23.95;9.68;;;;;;;3.75;100.00;103433.94;6223760;28;20061;-70
2021/03/01 07:48:41;;;;;;;27.35;9.52;;;;;;;3.75;99.01;103430.47;6223683;28;20061;-71
2021/03/01 07:51:44;;;;;;;22.67;9.77;;;;;;;3.65;99.40;103429.41;6223376;28;20057;-71
2021/03/01 07:54:54;;;;;;;31.67;10.30;;;;;;;3.68;100.00;103425.97;6223836;28;20064;-71
2021/03/01 07:58:03;;;;;;;22.42;9.25;;;;;;;3.80;100.00;103429.69;6223089;28;20407;-71
2021/03/01 08:01:13;;;;;;;23.05;9.57;;;;;;;3.76;99.88;103438.28;6222913;28;20050;-70
2021/03/01 08:04:28;;;;;;;;;;;;;;;3.79;98.75;103435.75;6223684;28;20054;-71
2021/03/01 08:07:40;;;;;;;22.67;7.97;;;;;;;3.81;98.93;103431.47;6223240;28;19933;-70
2021/03/01 08:10:45;;;;;;;23.90;9.23;;;;;;;3.90;98.45;103433.31;6223029;28;20049;-70
2021/03/01 08:13:46;;;;;;;21.95;9.63;;;;;;;3.70;97.82;103450.31;6223210;28;20493;-70
2021/03/01 08:16:46;;;;;;;23.52;9.02;;;;;;;3.74;98.93;103444.31;6221617;28;20058;-71
2021/03/01 08:19:47;;;;;;;23.50;9.90;;;;;;;3.81;99.61;103438.34;6222813;28;20053;-71
2021/03/01 08:23:18;;;;;;;27.55;10.73;;;;;;;3.67;100.00;103447.63;6222608;28;20050;-70
2021/03/01 08:26:29;;;;;;;25.92;10.50;;;;;;;3.68;100.00;103449.38;6203903;28;20061;-74
2021/03/01 08:29:30;;;;;;;25.73;10.60;;;;;;;3.74;100.00;103447.78;6222441;28;20041;-70
2021/03/01 08:32:31;;;;;;;27.85;10.13;;;;;;;3.78;99.39;103449.59;6221308;28;20525;-70
2021/03/01 08:35:32;;;;;;;27.25;10.75;;;;;;;3.81;99.82;103435.75;6222497;28;20417;-70
2021/03/01 08:38:47;;;;;;;28.27;11.10;;;;;;;3.82;100.00;103442.75;6221915;28;20052;-70
2021/03/01 08:41:49;;;;;;;25.10;10.18;;;;;;;3.85;100.00;103442.78;6222268;28;20050;-69
2021/03/01 08:44:53;;;;;;;21.48;9.90;;;;;;;4.01;99.48;103441.34;6222603;28;20108;-70
2021/03/01 08:47:55;;;;;;;26.02;9.07;;;;;;;3.94;98.04;103436.84;6222190;28;20061;-70
2021/03/01 08:50:56;;;;;;;23.50;9.05;;;;;;;3.91;97.85;103434.22;6221938;28;20434;-71
2021/03/01 08:53:57;;;;;;;19.33;9.43;;;;;;;3.86;98.56;103439.34;6222180;28;20042;-71
2021/03/01 08:57:06;;;;;;;25.67;9.38;;;;;;;3.88;98.81;103441.97;6222024;28;20054;-70
2021/03/01 09:00:09;;;;;;;26.30;10.85;;;;;;;3.97;99.28;103439.53;6221863;28;20056;-70
2021/03/01 09:03:32;;;;;;;21.67;9.65;;;;;;;4.05;98.04;103448.34;6222121;28;20072;-70
2021/03/01 09:06:33;;;;;;;27.23;9.55;;;;;;;4.02;98.48;103456.97;6217894;28;20064;-70
2021/03/01 09:09:47;;;;;;;22.50;9.73;;;;;;;4.09;98.10;103460.56;6222286;28;20046;-70
2021/03/01 09:12:49;;;;;;;28.73;10.90;;;;;;;3.92;97.68;103457.66;6221758;28;20525;-70
2021/03/01 09:15:50;;;;;;;18.98;8.35;;;;;;;3.88;97.75;103462.78;6222267;28;20513;-70
2021/03/01 09:18:52;;;;;;;31.80;9.70;;;;;;;3.85;97.34;103453.19;6221905;28;20049;-70
2021/03/01 09:21:55;;;;;;;22.48;8.32;;;;;;;4.03;97.57;103470.84;6221957;28;20084;-70
2021/03/01 09:24:56;;;;;;;24.27;9.32;;;;;;;3.94;96.95;103463.75;6221255;28;20514;-71
2021/03/01 09:27:58;;;;;;;28.20;9.77;;;;;;;3.96;97.03;103458.59;6221631;28;20145;-70
2021/03/01 09:31:05;;;;;;;24.67;9.65;;;;;;;4.06;96.14;103461.38;6220212;28;20050;-70
2021/03/01 09:34:06;;;;;;;23.48;9.10;;;;;;;3.96;96.05;103456.88;6221594;28;20111;-70
2021/03/01 09:37:08;;;;;;;20.98;8.98;;;;;;;3.99;95.83;103456.91;6222011;28;20053;-70
2021/03/01 09:40:10;;;;;;;27.48;10.30;;;;;;;4.03;96.43;103463.03;6221642;28;20053;-70
2021/03/01 09:43:12;;;;;;;24.95;9.15;;;;;;;4.08;96.06;103457.06;6221629;28;20061;-70
2021/03/01 09:46:13;;;;;;;24.42;9.27;;;;;;;4.01;96.52;103456.94;6221333;28;20053;-71
2021/03/01 09:49:15;;;;;;;25.15;9.77;;;;;;;4.02;96.37;103459.56;6222626;28;20054;-71
2021/03/01 09:52:16;;;;;;;26.58;10.50;;;;;;;4.10;96.80;103453.63;6226222;28;20061;-71
2021/03/01 09:55:20;;;;;;;24.73;10.45;;;;;;;4.13;96.83;103449.31;6226286;28;20112;-70
2021/03/01 09:58:27;;;;;;;21.75;10.25;;;;;;;4.19;96.62;103449.44;6225965;28;20137;-70
2021/03/01 10:01:28;;;;;;;29.25;9.88;;;;;;;4.25;96.30;103446.94;6224467;28;20042;-70
2021/03/01 10:04:28;;;;;;;24.20;9.80;;;;;;;4.31;96.66;103439.25;6224583;28;20551;-70
2021/03/01 10:07:29;;;;;;;25.05;10.32;;;;;;;4.36;95.98;103443.63;6224283;28;20049;-72
2021/03/01 10:10:35;;;;;;;30.27;11.32;;;;;;;4.36;95.80;103443.63;6224406;28;20089;-71
2021/03/01 10:13:37;;;;;;;28.10;10.50;;;;;;;4.49;95.29;103437.75;6224000;28;20053;-70
2021/03/01 10:16:40;;;;;;;22.08;9.27;;;;;;;4.51;94.58;103442.16;6225707;28;20060;-70
2021/03/01 10:19:40;;;;;;;23.38;10.07;;;;;;;4.55;93.00;103451.75;6223718;28;20054;-70
2021/03/01 10:23:01;;;;;;;27.13;9.65;;;;;;;4.54;92.58;103450.03;6224319;28;20048;-71
2021/03/01 10:26:15;;;;;;;26.23;10.80;;;;;;;4.57;92.64;103452.66;6223022;28;20050;-71
2021/03/01 10:29:17;;;;;;;22.42;8.98;;;;;;;4.65;92.65;103447.56;6224614;28;20103;-71
2021/03/01 10:32:19;;;;;;;20.88;9.20;;;;;;;4.59;90.74;103444.88;6225027;28;20064;-71
2021/03/01 10:35:21;;;;;;;28.70;11.10;;;;;;;4.68;91.79;103452.84;6225528;28;20104;-71
2021/03/01 10:38:22;;;;;;;24.25;10.55;;;;;;;4.86;91.63;103449.63;6225112;28;20442;-70
2021/03/01 10:41:25;;;;;;;24.75;10.60;;;;;;;4.89;91.09;103447.03;6225201;28;20050;-70
2021/03/01 10:44:31;;;;;;;22.60;10.18;;;;;;;4.93;91.39;103445.34;6225333;28;20054;-71
2021/03/01 10:47:33;;;;;;;23.60;10.25;;;;;;;4.88;89.86;103444.41;6225290;28;20054;-73
2021/03/01 10:50:34;;;;;;;27.02;10.48;;;;;;;4.96;89.30;103435.84;6224871;28;20054;-71
2021/03/01 10:53:35;;;;;;;25.90;10.10;;;;;;;5.00;89.92;103436.78;6223700;28;20426;-72
2021/03/01 10:56:36;;;;;;;23.58;10.10;;;;;;;5.08;88.94;103443.81;6222878;28;20046;-71
2021/03/01 10:59:38;;;;;;;20.50;9.52;;;;;;;5.27;88.18;103441.47;6223255;28;20588;-71
2021/03/01 11:02:39;;;;;;;19.20;9.20;;;;;;;5.19;88.07;103441.34;6223897;28;20057;-71
2021/03/01 11:05:43;;;;;;;23.25;9.80;;;;;;;5.08;88.21;103438.59;6224601;28;20050;-72
2021/03/01 11:08:44;;;;;;;25.55;9.95;;;;;;;5.22;86.53;103428.38;6224551;28;20419;-71
2021/03/01 11:11:46;;;;;;;23.70;9.85;;;;;;;5.14;87.30;103430.00;6250463;23;20053;-69
2021/03/01 11:14:48;;;;;;;31.63;10.15;;;;;;;5.20;88.11;103434.41;6248806;28;20059;-69
2021/03/01 11:17:49;;;;;;;21.52;10.55;;;;;;;5.34;88.10;103444.13;6249222;28;20493;-69
2021/03/01 11:20:49;;;;;;;23.73;10.85;;;;;;;5.52;86.33;103433.03;6246797;28;20049;-69
2021/03/01 11:23:50;;;;;;;22.80;9.32;;;;;;;5.37;87.02;103434.63;6238164;28;20050;-68
2021/03/01 11:26:52;;;;;;;23.95;9.18;;;;;;;5.49;87.43;103435.59;6230485;28;20041;-69
2021/03/01 11:29:54;;;;;;;28.55;11.07;;;;;;;5.44;87.93;103434.69;6248137;28;20045;-69
2021/03/01 11:32:55;;;;;;;28.92;11.23;;;;;;;5.46;86.67;103427.78;6247695;28;20053;-69
2021/03/01 11:35:56;;;;;;;20.35;10.77;;;;;;;5.79;85.71;103421.16;6248511;28;20080;-69
2021/03/01 11:38:57;;;;;;;21.90;9.50;;;;;;;5.80;84.93;103421.16;6248184;28;20490;-68
2021/03/01 11:41:58;;;;;;;25.42;10.73;;;;;;;5.74;85.26;103422.84;6242558;28;20049;-68
2021/03/01 11:45:00;;;;;;;31.27;11.75;;;;;;;5.73;85.27;103414.13;6235575;28;20050;-69
2021/03/01 11:48:00;;;;;;;26.08;10.73;;;;;;;5.86;82.65;103407.31;6223559;28;20058;-69
2021/03/01 11:51:01;;;;;;;28.52;11.90;;;;;;;5.64;83.91;103397.53;6223468;28;20465;-69
2021/03/01 11:54:02;;;;;;;24.25;11.32;;;;;;;5.93;83.29;103408.25;6239658;28;20514;-69
2021/03/01 11:57:03;;;;;;;36.55;14.30;;;;;;;5.75;84.46;103404.56;6238309;28;20061;-68
2021/03/01 12:00:07;;;;;;;28.60;13.35;;;;;;;5.77;84.05;103397.66;6223839;28;20384;-69
2021/03/01 12:03:09;;;;;;;28.55;12.88;;;;;;;5.92;84.55;103396.94;6241661;28;20056;-67
2021/03/01 12:06:10;;;;;;;32.80;14.68;;;;;;;5.85;85.10;103398.56;6236523;28;20057;-67
2021/03/01 12:09:11;;;;;;;34.72;13.63;;;;;;;5.85;84.77;103402.94;6236239;28;20542;-67
2021/03/01 12:12:12;;;;;;;36.97;15.23;;;;;;;5.91;84.74;103397.78;6235121;28;20060;-67
2021/03/01 12:15:14;;;;;;;34.80;15.38;;;;;;;6.08;81.61;103401.41;6233128;28;20049;-67
2021/03/01 12:18:15;;;;;;;38.70;17.10;;;;;;;5.96;83.06;103400.47;6239044;28;20054;-67
2021/03/01 12:21:16;;;;;;;41.75;18.15;;;;;;;6.10;85.28;103393.63;6247078;28;20089;-67
2021/03/01 12:24:17;;;;;;;44.70;19.38;;;;;;;6.35;84.23;103384.22;6233322;28;20046;-67
2021/03/01 12:27:18;;;;;;;53.78;20.02;;;;;;;6.34;83.50;103387.69;6223319;28;20054;-67
2021/03/01 12:30:20;;;;;;;43.83;18.60;;;;;;;6.55;82.16;103379.13;6233957;28;20128;-67
2021/03/01 12:33:21;;;;;;;49.83;19.88;;;;;;;6.37;83.02;103379.88;6236631;28;20053;-68
2021/03/01 12:36:22;;;;;;;49.38;21.67;;;;;;;6.18;81.44;103371.06;6222640;28;20050;-66
2021/03/01 12:39:23;;;;;;;53.22;23.70;;;;;;;6.03;83.21;103366.56;6245227;28;20421;-67
2021/03/01 12:42:24;;;;;;;55.20;22.23;;;;;;;5.90;84.62;103372.53;6246794;28;20084;-67
2021/03/01 12:45:26;;;;;;;67.07;24.45;;;;;;;6.03;84.53;103368.31;6247207;28;20098;-67
2021/03/01 12:48:27;;;;;;;55.35;24.70;;;;;;;6.24;84.94;103368.47;6247008;28;20049;-67
2021/03/01 12:51:27;;;;;;;47.47;21.60;;;;;;;6.44;82.63;103367.72;6246865;28;20055;-67
2021/03/01 12:54:28;;;;;;;53.45;24.00;;;;;;;6.46;82.11;103360.78;6246994;28;20053;-68
2021/03/01 12:57:29;;;;;;;60.20;21.42;;;;;;;6.40;81.08;103352.91;6245506;28;20095;-68
2021/03/01 13:00:31;;;;;;;59.55;25.70;;;;;;;6.32;83.25;103353.75;6246672;28;20052;-68
2021/03/01 13:03:32;;;;;;;54.95;22.90;;;;;;;6.45;82.96;103351.19;6246497;28;20056;-68
2021/03/01 13:06:33;;;;;;;50.33;21.17;;;;;;;6.67;82.26;103339.09;6246763;28;20045;-68
2021/03/01 13:09:33;;;;;;;49.22;24.17;;;;;;;7.07;81.44;103342.75;6246832;28;20049;-69
2021/03/01 13:12:34;;;;;;;47.03;22.20;;;;;;;7.45;79.37;103331.50;6246333;28;20080;-68
2021/03/01 13:15:36;;;;;;;50.90;21.35;;;;;;;7.77;77.94;103326.31;6246442;28;20050;-68
2021/03/01 13:18:37;;;;;;;45.20;20.88;;;;;;;8.38;76.17;103324.50;6246574;28;20045;-69
2021/03/01 13:21:38;;;;;;;43.63;21.80;;;;;;;8.40;75.26;103321.84;6246064;28;20057;-69
2021/03/01 13:24:39;;;;;;;39.83;20.00;;;;;;;8.45;73.63;103320.13;6231271;28;20132;-69
2021/03/01 13:27:39;;;;;;;52.03;22.20;;;;;;;8.43;74.93;103324.47;6228149;28;20053;-69
2021/03/01 13:30:41;;;;;;;41.92;20.70;;;;;;;8.22;74.64;103320.16;6228415;28;20076;-69
2021/03/01 13:33:43;;;;;;;47.30;21.75;;;;;;;8.30;75.77;103320.09;6251355;28;20560;-70
2021/03/01 13:36:44;;;;;;;41.15;19.65;;;;;;;8.73;74.74;103309.53;6251252;28;20053;-69
2021/03/01 13:39:45;;;;;;;37.92;17.60;;;;;;;8.88;71.80;103305.06;6249831;28;20097;-69
2021/03/01 13:42:46;;;;;;;34.17;17.58;;;;;;;9.07;70.84;103305.81;6250921;28;20080;-69
2021/03/01 13:45:47;;;;;;;37.85;18.50;;;;;;;9.17;68.58;103309.25;6251459;28;20050;-69
2021/03/01 13:48:48;;;;;;;34.45;19.02;;;;;;;9.10;71.98;103308.44;6251118;28;20057;-69
2021/03/01 13:51:49;;;;;;;36.15;18.98;;;;;;;9.22;70.94;103306.63;6250910;28;20054;-70
2021/03/01 13:54:50;;;;;;;40.00;20.67;;;;;;;9.01;71.44;103298.00;6251076;28;20477;-70
2021/03/01 13:57:51;;;;;;;38.28;19.25;;;;;;;8.82;71.88;103297.25;6249104;28;20421;-69
2021/03/01 14:00:52;;;;;;;43.22;19.73;;;;;;;8.81;70.19;103298.13;6250437;28;20050;-70